Time;durP1;ratioP1;P1;durP2;ratioP2;P2;SDS_P1;SDS_P2;PMS_P1;PMS_P2;Temp;Humidity;BMP_temperature;BMP_pressure;BME280_temperature;BME280_humidity;BME280_pressure;Samples;Min_cycle;Max_cycle;Signal;HPM_P1;HPM_P2
2023/08/27 00:01:34;;;;;;;27.73;26.83;;;24.80;95.10;;;;;;5032804;28;20468;-48
2023/08/27 00:04:01;;;;;;;28.93;28.03;;;24.80;95.10;;;;;;5040452;28;20496;-49
2023/08/27 00:06:27;;;;;;;26.77;25.97;;;24.80;95.10;;;;;;5043597;28;20508;-48
2023/08/27 00:08:54;;;;;;;30.13;29.13;;;24.70;95.10;;;;;;5044017;28;20475;-48
2023/08/27 00:11:21;;;;;;;27.63;26.73;;;24.70;95.10;;;;;;5042045;28;20474;-51
2023/08/27 00:13:48;;;;;;;27.90;27.00;;;24.70;95.10;;;;;;5040270;28;20453;-48
2023/08/27 00:16:15;;;;;;;27.23;26.33;;;24.70;95.10;;;;;;5041537;28;20473;-48
2023/08/27 00:18:44;;;;;;;27.07;26.17;;;24.70;95.10;;;;;;5043934;28;20814;-48
2023/08/27 00:21:10;;;;;;;28.23;27.33;;;24.70;95.10;;;;;;5043128;28;20478;-49
2023/08/27 00:23:40;;;;;;;29.40;28.40;;;24.70;95.10;;;;;;5039798;28;20515;-49
2023/08/27 00:26:06;;;;;;;30.40;29.40;;;24.70;95.20;;;;;;5040289;28;20445;-49
2023/08/27 00:28:33;;;;;;;28.07;27.17;;;24.70;95.20;;;;;;5043636;28;20475;-50
2023/08/27 00:31:02;;;;;;;26.10;25.30;;;24.70;95.20;;;;;;5043758;28;20479;-48
2023/08/27 00:33:30;;;;;;;29.10;28.20;;;24.70;95.20;;;;;;5040136;28;20553;-50
2023/08/27 00:35:58;;;;;;;26.53;25.73;;;24.70;95.20;;;;;;5040224;28;20798;-48
2023/08/27 00:38:25;;;;;;;27.63;26.73;;;24.70;95.20;;;;;;5042409;28;20528;-49
2023/08/27 00:40:51;;;;;;;29.70;28.70;;;24.70;95.20;;;;;;5042765;28;20531;-48
2023/08/27 00:43:18;;;;;;;27.43;26.53;;;24.70;95.20;;;;;;5041794;28;20515;-48
2023/08/27 00:45:45;;;;;;;26.83;26.03;;;24.70;95.10;;;;;;5039903;28;20488;-48
2023/08/27 00:48:12;;;;;;;27.77;26.87;;;24.70;95.20;;;;;;5040389;28;20960;-48
2023/08/27 00:50:40;;;;;;;26.73;25.77;;;24.70;95.10;;;;;;5043348;28;20447;-48
2023/08/27 00:53:08;;;;;;;28.17;27.27;;;24.70;95.10;;;;;;5043274;28;20499;-48
2023/08/27 00:55:36;;;;;;;27.73;26.83;;;24.70;95.20;;;;;;5031765;28;20852;-50
2023/08/27 00:58:03;;;;;;;28.57;27.67;;;24.70;95.20;;;;;;5039884;28;20815;-48
2023/08/27 01:00:31;;;;;;;27.43;26.53;;;24.70;95.20;;;;;;5042705;28;20531;-48
2023/08/27 01:02:58;;;;;;;28.20;27.30;;;24.70;95.20;;;;;;5042926;28;20512;-49
2023/08/27 01:05:25;;;;;;;27.93;27.03;;;24.70;95.20;;;;;;5040641;28;20472;-48
2023/08/27 01:07:58;;;;;;;28.40;27.50;;;24.70;95.20;;;;;;5039587;28;20469;-50
2023/08/27 01:10:35;;;;;;;27.67;26.77;;;24.70;95.20;;;;;;5041818;28;20461;-49
2023/08/27 01:13:04;;;;;;;27.83;26.93;;;24.70;95.50;;;;;;5042985;28;20470;-48
2023/08/27 01:15:32;;;;;;;28.23;27.33;;;24.70;95.20;;;;;;5039695;28;20480;-48
2023/08/27 01:18:01;;;;;;;27.30;26.40;;;24.70;95.20;;;;;;5039447;28;20978;-48
2023/08/27 01:20:28;;;;;;;28.07;27.17;;;24.70;95.20;;;;;;5041932;28;20448;-48
2023/08/27 01:22:56;;;;;;;29.43;28.43;;;24.70;95.20;;;;;;5042789;28;20485;-49
2023/08/27 01:25:28;;;;;;;30.90;29.90;;;24.70;95.30;;;;;;5040609;28;20479;-48
2023/08/27 01:28:04;;;;;;;28.07;27.07;;;24.70;95.30;;;;;;5039490;28;20473;-48
2023/08/27 01:30:37;;;;;;;27.23;26.33;;;24.70;95.30;;;;;;5042343;28;20436;-48
2023/08/27 01:33:09;;;;;;;25.90;25.10;;;24.70;95.30;;;;;;5042749;28;20495;-51
2023/08/27 01:35:38;;;;;;;27.90;27.00;;;24.70;95.30;;;;;;5031365;28;20473;-49
2023/08/27 01:38:07;;;;;;;27.50;26.60;;;24.70;95.60;;;;;;5039302;28;20444;-48
2023/08/27 01:40:34;;;;;;;26.47;25.63;;;24.70;95.30;;;;;;5042560;28;20460;-48
2023/08/27 01:43:00;;;;;;;27.20;26.40;;;24.70;95.30;;;;;;5042730;28;20522;-49
2023/08/27 01:45:27;;;;;;;28.80;27.80;;;24.70;95.30;;;;;;5040014;28;20475;-48
2023/08/27 01:47:54;;;;;;;26.80;25.80;;;24.70;95.60;;;;;;5039258;28;20484;-48
2023/08/27 01:50:21;;;;;;;27.67;26.77;;;24.70;95.30;;;;;;5040557;28;20441;-49
2023/08/27 01:52:48;;;;;;;27.17;26.27;;;24.60;95.30;;;;;;5045085;28;20500;-48
2023/08/27 01:55:16;;;;;;;26.67;25.77;;;24.60;95.20;;;;;;5045668;28;20535;-50
2023/08/27 01:57:45;;;;;;;28.10;27.20;;;24.60;95.20;;;;;;5043045;28;20877;-48
2023/08/27 02:00:14;;;;;;;26.90;26.00;;;24.60;95.30;;;;;;5043015;28;20476;-48
2023/08/27 02:02:42;;;;;;;27.90;27.00;;;24.60;95.20;;;;;;5046141;28;20578;-48
2023/08/27 02:05:09;;;;;;;28.43;27.53;;;24.60;95.20;;;;;;5046207;28;20450;-48
2023/08/27 02:07:38;;;;;;;28.63;27.73;;;24.60;95.20;;;;;;5034838;28;20473;-49
2023/08/27 02:10:06;;;;;;;29.07;28.17;;;24.60;95.20;;;;;;5043023;28;20477;-48
2023/08/27 02:12:34;;;;;;;28.97;28.07;;;24.60;95.30;;;;;;5045537;28;20967;-48
2023/08/27 02:15:02;;;;;;;28.63;27.73;;;24.60;95.20;;;;;;5046055;28;20472;-48
2023/08/27 02:17:29;;;;;;;29.30;28.30;;;24.60;95.20;;;;;;5043650;28;20444;-48
2023/08/27 02:19:56;;;;;;;28.33;27.43;;;24.60;95.30;;;;;;5042715;28;20817;-48
2023/08/27 02:22:23;;;;;;;27.07;26.27;;;24.60;95.30;;;;;;5043992;28;20480;-48
2023/08/27 02:24:50;;;;;;;28.10;27.20;;;24.60;95.30;;;;;;5045982;28;20483;-48
2023/08/27 02:27:17;;;;;;;27.80;26.90;;;24.60;95.30;;;;;;5045127;28;20531;-48
2023/08/27 02:29:45;;;;;;;31.23;30.23;;;24.60;95.30;;;;;;5042483;28;20477;-48
2023/08/27 02:32:12;;;;;;;29.80;28.80;;;24.60;95.30;;;;;;5042367;28;20477;-49
2023/08/27 02:34:39;;;;;;;28.53;27.63;;;24.60;95.30;;;;;;5045573;28;20474;-48
2023/08/27 02:37:06;;;;;;;29.60;28.60;;;24.60;95.30;;;;;;5045809;28;20494;-48
2023/08/27 02:39:34;;;;;;;29.43;28.53;;;24.60;95.30;;;;;;5042922;28;20437;-49
2023/08/27 02:42:00;;;;;;;28.20;27.20;;;24.60;95.30;;;;;;5042398;28;20475;-48
2023/08/27 02:44:27;;;;;;;30.03;29.07;;;24.60;95.30;;;;;;5043874;28;20560;-50
2023/08/27 02:46:55;;;;;;;28.87;27.97;;;24.60;95.30;;;;;;5045507;28;20483;-48
2023/08/27 02:49:22;;;;;;;31.20;30.20;;;24.60;95.30;;;;;;5044096;28;20478;-48
2023/08/27 02:51:49;;;;;;;29.50;28.60;;;24.60;95.30;;;;;;5042095;28;20479;-49
2023/08/27 02:54:16;;;;;;;28.53;27.63;;;24.60;95.30;;;;;;5042109;28;20461;-50
2023/08/27 02:56:43;;;;;;;28.33;27.43;;;24.60;95.30;;;;;;5045493;28;20483;-48
2023/08/27 02:59:10;;;;;;;30.60;29.50;;;24.60;95.30;;;;;;5045438;28;20503;-49
2023/08/27 03:01:37;;;;;;;29.30;28.30;;;24.60;95.30;;;;;;5041838;28;20475;-49
2023/08/27 03:04:05;;;;;;;29.60;28.60;;;24.60;95.30;;;;;;5040696;28;20485;-48
2023/08/27 03:06:32;;;;;;;28.80;27.83;;;24.60;95.30;;;;;;5044408;28;20495;-51
2023/08/27 03:08:59;;;;;;;28.70;27.80;;;24.50;95.20;;;;;;5045241;28;20471;-48
2023/08/27 03:11:26;;;;;;;27.83;26.93;;;24.60;95.30;;;;;;5043452;28;20483;-49
2023/08/27 03:13:53;;;;;;;28.40;27.43;;;24.60;95.30;;;;;;5041425;28;20492;-49
2023/08/27 03:16:19;;;;;;;30.80;29.80;;;24.60;95.30;;;;;;5042347;28;20481;-48
2023/08/27 03:18:47;;;;;;;29.53;28.63;;;24.60;95.30;;;;;;5045023;28;20476;-48
2023/08/27 03:21:16;;;;;;;29.00;28.00;;;24.60;95.30;;;;;;5044848;28;20531;-50
2023/08/27 03:23:42;;;;;;;29.03;28.13;;;24.60;95.30;;;;;;5041099;28;20568;-48
2023/08/27 03:26:09;;;;;;;29.53;28.53;;;24.60;95.30;;;;;;5041566;28;20479;-48
2023/08/27 03:28:36;;;;;;;28.33;27.43;;;24.60;95.30;;;;;;5044266;28;20472;-48
2023/08/27 03:31:03;;;;;;;27.17;26.27;;;24.50;95.20;;;;;;5044876;28;20448;-48
2023/08/27 03:33:31;;;;;;;28.00;27.10;;;24.60;95.30;;;;;;5042265;28;20463;-48
2023/08/27 03:35:59;;;;;;;30.33;29.30;;;24.50;95.20;;;;;;5041285;28;20476;-48
2023/08/27 03:38:27;;;;;;;29.83;28.83;;;24.50;95.20;;;;;;5042619;28;20524;-48
2023/08/27 03:40:54;;;;;;;28.07;27.17;;;24.50;95.20;;;;;;5044673;28;20932;-48
2023/08/27 03:43:21;;;;;;;31.70;30.60;;;24.50;95.20;;;;;;5043478;28;20511;-48
2023/08/27 03:45:48;;;;;;;29.30;28.30;;;24.50;95.20;;;;;;5041113;28;20468;-49
2023/08/27 03:48:15;;;;;;;27.80;26.90;;;24.50;95.30;;;;;;5040945;28;20476;-48
2023/08/27 03:50:42;;;;;;;28.93;28.03;;;24.50;95.30;;;;;;5044360;28;20939;-48
2023/08/27 03:53:10;;;;;;;28.00;27.10;;;24.50;95.30;;;;;;5044285;28;21013;-49
2023/08/27 03:55:42;;;;;;;30.00;29.00;;;24.50;95.30;;;;;;5041133;28;20442;-48
2023/08/27 03:58:09;;;;;;;27.70;26.80;;;24.50;95.20;;;;;;5040844;28;20445;-48
2023/08/27 04:00:36;;;;;;;29.70;28.70;;;24.50;95.20;;;;;;5043542;28;20475;-48
2023/08/27 04:03:04;;;;;;;29.73;28.73;;;24.50;95.20;;;;;;5043966;28;20480;-48
2023/08/27 04:05:31;;;;;;;34.37;33.27;;;24.50;95.20;;;;;;5041706;28;20445;-50
2023/08/27 04:07:58;;;;;;;31.27;30.27;;;24.50;95.20;;;;;;5040703;28;20479;-48
2023/08/27 04:10:25;;;;;;;30.53;29.53;;;24.50;95.20;;;;;;5041721;28;20476;-49
2023/08/27 04:12:54;;;;;;;31.30;30.30;;;24.50;95.30;;;;;;5043969;28;20463;-48
2023/08/27 04:15:21;;;;;;;32.43;31.43;;;24.50;95.30;;;;;;5041884;28;20440;-48
2023/08/27 04:17:48;;;;;;;30.80;29.80;;;24.50;95.20;;;;;;5040398;28;20477;-49
2023/08/27 04:20:15;;;;;;;33.77;32.67;;;24.50;95.20;;;;;;5040379;28;20871;-49
2023/08/27 04:22:42;;;;;;;31.70;30.70;;;24.50;95.20;;;;;;5032531;28;20465;-49
2023/08/27 04:25:10;;;;;;;34.23;33.13;;;24.50;95.30;;;;;;5040085;28;20563;-53
2023/08/27 04:27:37;;;;;;;31.37;30.37;;;24.50;95.30;;;;;;5043073;28;20932;-51
2023/08/27 04:30:07;;;;;;;31.70;30.67;;;24.50;95.30;;;;;;5043474;28;20468;-50
2023/08/27 04:32:34;;;;;;;31.77;30.67;;;24.50;95.30;;;;;;5041123;28;20447;-52
2023/08/27 04:35:01;;;;;;;34.73;33.53;;;24.50;95.30;;;;;;5039860;28;20465;-50
2023/08/27 04:37:28;;;;;;;33.27;32.17;;;24.50;95.30;;;;;;5041427;28;20960;-53
2023/08/27 04:39:55;;;;;;;31.73;30.53;;;24.50;95.30;;;;;;5043502;28;20476;-50
2023/08/27 04:42:22;;;;;;;33.63;32.53;;;24.50;95.30;;;;;;5042575;28;20519;-51
2023/08/27 04:44:49;;;;;;;32.83;31.73;;;24.50;95.30;;;;;;5039720;28;20512;-50
2023/08/27 04:47:17;;;;;;;33.63;32.53;;;24.50;95.30;;;;;;5039955;28;20442;-51
2023/08/27 04:49:44;;;;;;;30.20;29.20;;;24.50;95.30;;;;;;5031926;28;20473;-51
2023/08/27 04:52:11;;;;;;;33.10;32.00;;;24.50;95.30;;;;;;5039919;28;20476;-51
2023/08/27 04:54:37;;;;;;;32.33;31.23;;;24.50;95.30;;;;;;5042261;28;20457;-51
2023/08/27 04:57:05;;;;;;;32.37;31.27;;;24.50;95.30;;;;;;5043199;28;20472;-53
2023/08/27 04:59:31;;;;;;;33.63;32.47;;;24.50;95.30;;;;;;5041215;28;20475;-51
2023/08/27 05:01:59;;;;;;;30.73;29.73;;;24.50;95.30;;;;;;5039752;28;20476;-51
2023/08/27 05:04:29;;;;;;;33.77;32.67;;;24.40;95.20;;;;;;5040543;28;20859;-51
2023/08/27 05:06:56;;;;;;;31.63;30.63;;;24.40;95.20;;;;;;5043014;28;20479;-53
2023/08/27 05:09:23;;;;;;;32.77;31.67;;;24.40;95.20;;;;;;5042294;28;20468;-51
2023/08/27 05:11:50;;;;;;;32.53;31.50;;;24.50;95.30;;;;;;5039574;28;20442;-51
2023/08/27 05:14:17;;;;;;;31.90;30.90;;;24.40;95.20;;;;;;5039304;28;20484;-53
2023/08/27 05:16:44;;;;;;;33.90;32.80;;;24.40;95.20;;;;;;5039699;28;20472;-51
2023/08/27 05:19:11;;;;;;;33.07;31.97;;;24.40;95.20;;;;;;5039913;28;20476;-51
2023/08/27 05:21:39;;;;;;;32.97;31.87;;;24.40;95.20;;;;;;5042095;28;20511;-53
2023/08/27 05:24:06;;;;;;;31.80;30.80;;;24.40;95.30;;;;;;5042476;28;20508;-52
2023/08/27 05:26:33;;;;;;;32.10;31.00;;;24.40;95.30;;;;;;5040468;28;20436;-52
2023/08/27 05:29:00;;;;;;;31.90;30.80;;;24.40;95.60;;;;;;5039416;28;20464;-50
2023/08/27 05:31:27;;;;;;;33.13;32.03;;;24.40;95.20;;;;;;5040379;28;20476;-53
2023/08/27 05:33:54;;;;;;;34.90;33.70;;;24.40;95.30;;;;;;5042652;28;20531;-50
2023/08/27 05:36:21;;;;;;;33.90;32.80;;;24.40;95.30;;;;;;5042472;28;20863;-52
2023/08/27 05:38:50;;;;;;;35.63;34.53;;;24.40;95.20;;;;;;5039395;28;20796;-51
2023/08/27 05:41:17;;;;;;;33.67;32.57;;;24.40;95.30;;;;;;5039386;28;20765;-52
2023/08/27 05:43:44;;;;;;;36.93;35.73;;;24.40;95.30;;;;;;5042121;28;20549;-52
2023/08/27 05:46:11;;;;;;;33.10;32.00;;;24.40;95.20;;;;;;5042674;28;20475;-50
2023/08/27 05:48:38;;;;;;;36.00;34.80;;;24.40;95.30;;;;;;5040174;28;20440;-51
2023/08/27 05:51:05;;;;;;;33.87;32.70;;;24.40;95.30;;;;;;5039319;28;20460;-55
2023/08/27 05:53:32;;;;;;;35.83;34.63;;;24.40;95.30;;;;;;5040711;28;20656;-53
2023/08/27 05:56:00;;;;;;;34.40;33.30;;;24.40;95.30;;;;;;5042655;28;20464;-51
2023/08/27 05:58:27;;;;;;;36.93;35.73;;;24.40;95.30;;;;;;5041525;28;20971;-51
2023/08/27 06:00:55;;;;;;;35.97;34.77;;;24.40;95.30;;;;;;5039246;28;20441;-54
2023/08/27 06:03:22;;;;;;;36.50;35.30;;;24.40;95.30;;;;;;5038966;28;20487;-53
2023/08/27 06:05:49;;;;;;;36.03;34.83;;;24.40;95.30;;;;;;5042378;28;20451;-50
2023/08/27 06:08:16;;;;;;;36.37;35.17;;;24.40;95.30;;;;;;5042669;28;20444;-50
2023/08/27 06:10:43;;;;;;;36.00;34.80;;;24.40;95.30;;;;;;5039245;28;20480;-52
2023/08/27 06:13:11;;;;;;;37.03;35.83;;;24.40;95.30;;;;;;5038925;28;20485;-52
2023/08/27 06:15:38;;;;;;;37.93;36.73;;;24.40;95.30;;;;;;5041148;28;20476;-53
2023/08/27 06:18:07;;;;;;;34.50;33.40;;;24.40;95.30;;;;;;5042404;28;20958;-51
2023/08/27 06:20:34;;;;;;;33.10;32.00;;;24.40;95.30;;;;;;5040700;28;20448;-52
2023/08/27 06:23:02;;;;;;;36.50;35.20;;;24.40;95.30;;;;;;5038784;28;20882;-51
2023/08/27 06:25:29;;;;;;;34.90;33.70;;;24.40;95.30;;;;;;5039607;28;20485;-51
2023/08/27 06:27:56;;;;;;;35.07;33.87;;;24.30;95.20;;;;;;5042357;28;20468;-52
2023/08/27 06:30:25;;;;;;;34.10;33.00;;;24.40;95.30;;;;;;5041870;28;20881;-53
2023/08/27 06:32:52;;;;;;;34.60;33.50;;;24.40;95.30;;;;;;5038738;28;20461;-52
2023/08/27 06:35:19;;;;;;;37.33;36.13;;;24.40;95.30;;;;;;5038704;28;20477;-55
2023/08/27 06:37:45;;;;;;;33.70;32.53;;;24.40;95.30;;;;;;5041915;28;20470;-51
2023/08/27 06:40:13;;;;;;;37.47;36.23;;;24.30;95.20;;;;;;5045017;28;20472;-52
2023/08/27 06:42:41;;;;;;;36.77;35.57;;;24.30;95.20;;;;;;5042958;28;20491;-51
2023/08/27 06:45:09;;;;;;;38.30;37.00;;;24.40;95.30;;;;;;5041930;28;20511;-53
2023/08/27 06:47:37;;;;;;;36.03;34.83;;;24.30;95.20;;;;;;5044119;28;20452;-55
2023/08/27 06:50:06;;;;;;;37.60;36.30;;;24.30;95.20;;;;;;5045529;28;20475;-53
2023/08/27 06:52:33;;;;;;;35.90;34.70;;;24.30;95.30;;;;;;5043961;28;20440;-50
2023/08/27 06:55:00;;;;;;;37.30;36.10;;;24.30;95.60;;;;;;5041870;28;20473;-56
2023/08/27 06:57:27;;;;;;;38.53;37.23;;;24.30;95.30;;;;;;5042454;28;20475;-51
2023/08/27 06:59:54;;;;;;;38.07;36.77;;;24.30;95.30;;;;;;5045245;28;20440;-52
2023/08/27 07:02:21;;;;;;;38.40;37.10;;;24.30;95.30;;;;;;5045450;28;20866;-54
2023/08/27 07:04:49;;;;;;;37.80;36.50;;;24.30;95.30;;;;;;5041837;28;20477;-51
2023/08/27 07:07:16;;;;;;;37.63;36.33;;;24.30;95.30;;;;;;5041909;28;20872;-50
2023/08/27 07:09:43;;;;;;;36.90;35.67;;;24.30;95.30;;;;;;5044315;28;20546;-51
2023/08/27 07:12:10;;;;;;;36.03;34.83;;;24.30;95.30;;;;;;5045204;28;20468;-50
2023/08/27 07:14:37;;;;;;;41.23;39.83;;;24.30;95.30;;;;;;5042844;28;20460;-51
2023/08/27 07:17:04;;;;;;;37.73;36.43;;;24.30;95.30;;;;;;5041842;28;20481;-53
2023/08/27 07:19:31;;;;;;;36.13;34.93;;;24.30;95.30;;;;;;5042418;28;20469;-53
2023/08/27 07:21:59;;;;;;;42.50;41.00;;;24.30;95.30;;;;;;5044980;28;20468;-52
2023/08/27 07:24:26;;;;;;;36.47;35.23;;;24.30;95.30;;;;;;5043940;28;20519;-52
2023/08/27 07:26:53;;;;;;;37.40;36.10;;;24.30;95.30;;;;;;5041504;28;20473;-51
2023/08/27 07:29:20;;;;;;;39.90;38.53;;;24.30;95.30;;;;;;5041542;28;20886;-51
2023/08/27 07:31:47;;;;;;;38.70;37.40;;;24.30;95.30;;;;;;5044355;28;20444;-51
2023/08/27 07:34:13;;;;;;;40.80;39.40;;;24.30;95.30;;;;;;5044408;28;20460;-54
2023/08/27 07:36:40;;;;;;;35.60;34.40;;;24.30;95.30;;;;;;5042387;28;20472;-53
2023/08/27 07:39:09;;;;;;;36.03;34.80;;;24.30;95.30;;;;;;5041143;28;20541;-50
2023/08/27 07:41:36;;;;;;;35.97;34.77;;;24.30;95.30;;;;;;5042560;28;20484;-51
2023/08/27 07:44:03;;;;;;;37.70;36.40;;;24.30;95.30;;;;;;5044291;28;20834;-51
2023/08/27 07:46:30;;;;;;;39.23;37.93;;;24.30;95.30;;;;;;5043747;28;20440;-54
2023/08/27 07:48:57;;;;;;;37.30;36.00;;;24.30;95.30;;;;;;5040961;28;20475;-51
2023/08/27 07:51:24;;;;;;;35.43;34.23;;;24.30;95.30;;;;;;5039683;28;20489;-53
2023/08/27 07:53:51;;;;;;;39.13;37.83;;;24.30;95.70;;;;;;5037204;28;20504;-49
2023/08/27 07:56:19;;;;;;;44.07;42.47;;;24.30;96.50;;;;;;5040982;28;20583;-48
2023/08/27 07:58:46;;;;;;;39.90;38.50;;;24.30;96.10;;;;;;5043648;28;20525;-47
2023/08/27 08:01:13;;;;;;;38.50;37.10;;;24.30;96.10;;;;;;5044174;28;20480;-47
2023/08/27 08:03:41;;;;;;;37.70;36.30;;;24.20;95.70;;;;;;5041984;28;20504;-47
2023/08/27 08:06:08;;;;;;;39.50;37.90;;;24.20;95.70;;;;;;5040822;28;20484;-48
2023/08/27 08:08:35;;;;;;;38.30;36.80;;;24.20;95.60;;;;;;5040658;28;20476;-47
2023/08/27 08:11:02;;;;;;;38.33;36.93;;;24.20;95.50;;;;;;5040608;28;20483;-48
2023/08/27 08:13:32;;;;;;;38.10;36.70;;;24.20;95.40;;;;;;5040711;28;20485;-50
2023/08/27 08:15:59;;;;;;;35.47;33.87;;;24.20;95.50;;;;;;5043901;28;20923;-48
2023/08/27 08:18:26;;;;;;;35.47;34.17;;;24.20;95.30;;;;;;5043901;28;21335;-48
2023/08/27 08:20:55;;;;;;;37.30;35.90;;;24.20;95.40;;;;;;5039481;28;20865;-47
2023/08/27 08:23:22;;;;;;;37.30;36.00;;;24.20;95.10;;;;;;5040094;28;20476;-48
2023/08/27 08:25:50;;;;;;;35.83;34.40;;;24.20;95.10;;;;;;5043200;28;20535;-46
2023/08/27 08:28:17;;;;;;;37.30;36.00;;;24.20;95.00;;;;;;5043688;28;20947;-47
2023/08/27 08:30:49;;;;;;;36.93;35.53;;;24.20;95.10;;;;;;5040869;28;20487;-48
2023/08/27 08:33:16;;;;;;;36.63;35.33;;;24.20;95.00;;;;;;5040617;28;20471;-48
2023/08/27 08:35:43;;;;;;;35.63;34.23;;;24.10;94.40;;;;;;5041059;28;20523;-47
2023/08/27 08:38:10;;;;;;;35.10;33.80;;;24.10;95.00;;;;;;5039873;28;20445;-49
2023/08/27 08:40:44;;;;;;;37.40;36.00;;;24.10;94.50;;;;;;5039715;28;20539;-46
2023/08/27 08:43:17;;;;;;;37.80;36.50;;;24.00;93.80;;;;;;5040021;28;20461;-48
2023/08/27 08:45:53;;;;;;;36.50;35.20;;;24.00;93.80;;;;;;5041949;28;20509;-48
2023/08/27 08:48:22;;;;;;;35.77;34.57;;;24.00;93.80;;;;;;5043136;28;20482;-51
2023/08/27 08:50:51;;;;;;;36.37;34.97;;;23.90;93.80;;;;;;5040339;28;20796;-49
2023/08/27 08:53:20;;;;;;;36.13;34.83;;;23.90;93.30;;;;;;5039744;28;20540;-48
2023/08/27 08:55:47;;;;;;;38.50;37.10;;;23.90;93.30;;;;;;5042127;28;20475;-51
2023/08/27 08:58:16;;;;;;;35.07;33.77;;;23.90;93.40;;;;;;5042942;28;20483;-49
2023/08/27 09:00:43;;;;;;;36.80;35.40;;;23.80;93.70;;;;;;5040359;28;20495;-48
2023/08/27 09:03:12;;;;;;;38.70;37.30;;;23.80;93.70;;;;;;5039021;28;20908;-50
2023/08/27 09:05:40;;;;;;;36.90;35.50;;;23.80;94.30;;;;;;5040819;28;20477;-51
2023/08/27 09:08:10;;;;;;;35.60;34.20;;;23.80;94.20;;;;;;5043002;28;20487;-49
2023/08/27 09:10:38;;;;;;;36.50;34.97;;;23.80;94.40;;;;;;5041702;28;20440;-48
2023/08/27 09:13:06;;;;;;;38.80;36.90;;;23.80;96.20;;;;;;5039616;28;20495;-48
2023/08/27 09:15:33;;;;;;;36.20;34.83;;;23.80;96.40;;;;;;5039847;28;20465;-48
2023/08/27 09:17:59;;;;;;;37.07;35.37;;;23.80;95.50;;;;;;5042766;28;20475;-48
2023/08/27 09:20:30;;;;;;;37.00;35.60;;;23.80;94.80;;;;;;5038809;28;20492;-48
2023/08/27 09:22:57;;;;;;;39.20;37.60;;;23.70;95.00;;;;;;5031437;28;20548;-47
2023/08/27 09:25:24;;;;;;;37.80;36.27;;;23.70;94.30;;;;;;5039399;28;20504;-47
2023/08/27 09:27:51;;;;;;;37.73;35.93;;;23.70;93.60;;;;;;5042359;28;20472;-47
2023/08/27 09:30:19;;;;;;;37.80;36.40;;;23.60;92.70;;;;;;5039817;28;20477;-47
2023/08/27 09:32:46;;;;;;;36.93;35.53;;;23.60;92.60;;;;;;5041546;28;20489;-49
2023/08/27 09:35:13;;;;;;;38.60;37.00;;;23.60;92.10;;;;;;5042688;28;20468;-48
2023/08/27 09:37:43;;;;;;;37.47;36.17;;;23.50;92.40;;;;;;5038276;28;20488;-50
2023/08/27 09:40:12;;;;;;;38.60;37.20;;;23.60;93.20;;;;;;5038081;28;20579;-49
2023/08/27 09:42:39;;;;;;;39.90;38.40;;;23.50;93.40;;;;;;5040576;28;20865;-50
2023/08/27 09:45:07;;;;;;;38.07;36.77;;;23.50;93.30;;;;;;5042536;28;20510;-50
2023/08/27 09:47:35;;;;;;;38.93;37.53;;;23.60;93.40;;;;;;5042029;28;20974;-49
2023/08/27 09:50:05;;;;;;;38.87;37.53;;;23.60;93.30;;;;;;5039218;28;20524;-51
2023/08/27 09:52:32;;;;;;;36.87;35.57;;;23.60;93.30;;;;;;5039069;28;20514;-52
2023/08/27 09:55:00;;;;;;;36.53;35.10;;;23.60;93.40;;;;;;5042597;28;20466;-48
2023/08/27 09:57:30;;;;;;;37.90;36.50;;;23.60;93.30;;;;;;5042693;28;20475;-52
2023/08/27 09:59:56;;;;;;;37.10;35.80;;;23.60;93.30;;;;;;5039151;28;20473;-49
2023/08/27 10:02:23;;;;;;;37.00;35.70;;;23.60;93.20;;;;;;5039015;28;20484;-51
2023/08/27 10:04:51;;;;;;;33.80;32.60;;;23.60;93.10;;;;;;5041570;28;20820;-50
2023/08/27 10:07:18;;;;;;;31.00;29.90;;;23.60;93.00;;;;;;5042568;28;20894;-48
2023/08/27 10:09:50;;;;;;;31.93;30.73;;;23.60;92.80;;;;;;5040406;28;20483;-51
2023/08/27 10:12:19;;;;;;;34.80;33.50;;;23.50;92.70;;;;;;5039124;28;20812;-49
2023/08/27 10:14:47;;;;;;;36.50;35.20;;;23.60;92.70;;;;;;5044743;28;20476;-50
2023/08/27 10:17:16;;;;;;;36.03;34.70;;;23.60;92.80;;;;;;5046187;28;20468;-50
2023/08/27 10:19:43;;;;;;;35.13;33.87;;;23.50;92.60;;;;;;5044486;28;20478;-48
2023/08/27 10:22:11;;;;;;;38.13;36.73;;;23.50;92.50;;;;;;5042642;28;20940;-49
2023/08/27 10:24:41;;;;;;;37.63;36.23;;;23.50;92.60;;;;;;5042466;22;20672;-49
2023/08/27 10:27:07;;;;;;;37.13;35.73;;;23.50;92.60;;;;;;4980497;28;20875;-48
2023/08/27 10:29:37;;;;;;;34.10;32.80;;;23.60;92.60;;;;;;4980643;28;20993;-48
2023/08/27 10:32:06;;;;;;;37.30;35.90;;;23.50;92.50;;;;;;4983615;28;20443;-48
2023/08/27 10:34:34;;;;;;;36.00;34.70;;;23.50;92.50;;;;;;4969057;28;20983;-51
2023/08/27 10:37:09;;;;;;;38.07;36.70;;;23.60;92.60;;;;;;4960906;28;20479;-48
2023/08/27 10:39:37;;;;;;;39.03;37.53;;;23.50;92.50;;;;;;4961282;28;20506;-48
2023/08/27 10:42:05;;;;;;;38.13;36.63;;;23.60;92.60;;;;;;4964208;28;20954;-48
2023/08/27 10:44:33;;;;;;;38.30;36.87;;;23.50;92.50;;;;;;4964001;28;20460;-50
2023/08/27 10:47:10;;;;;;;37.03;35.63;;;23.50;92.50;;;;;;4953168;28;20534;-48
2023/08/27 10:49:38;;;;;;;38.60;37.13;;;23.60;92.60;;;;;;4961223;28;20454;-51
2023/08/27 10:52:15;;;;;;;36.50;35.20;;;23.60;92.70;;;;;;4964068;28;20899;-47
2023/08/27 10:54:42;;;;;;;37.23;35.90;;;23.60;92.70;;;;;;4962302;28;20506;-48
2023/08/27 10:57:19;;;;;;;35.90;34.60;;;23.60;92.60;;;;;;4960664;28;20476;-49
2023/08/27 10:59:46;;;;;;;36.37;35.07;;;23.60;92.50;;;;;;4962296;28;20480;-48
2023/08/27 11:02:16;;;;;;;34.10;32.80;;;23.50;92.20;;;;;;4963888;28;20479;-48
2023/08/27 11:04:44;;;;;;;36.87;35.57;;;23.50;92.00;;;;;;4962186;28;20475;-48
2023/08/27 11:07:12;;;;;;;38.43;37.03;;;23.50;91.90;;;;;;4960521;28;21004;-48
2023/08/27 11:09:47;;;;;;;37.77;36.47;;;23.50;91.80;;;;;;4961196;28;20484;-49
2023/08/27 11:12:25;;;;;;;38.20;36.80;;;23.50;91.80;;;;;;4963810;28;20453;-48
2023/08/27 11:14:52;;;;;;;39.23;37.83;;;23.50;91.90;;;;;;4960920;28;20872;-49
2023/08/27 11:17:26;;;;;;;36.93;35.63;;;23.50;91.80;;;;;;4960320;28;20444;-49
2023/08/27 11:19:54;;;;;;;36.70;35.27;;;23.50;91.80;;;;;;4962845;28;20504;-48
2023/08/27 11:22:22;;;;;;;37.57;36.27;;;23.50;91.80;;;;;;4963545;28;20450;-50
2023/08/27 11:24:50;;;;;;;37.93;36.33;;;23.60;91.70;;;;;;4960358;28;20507;-48
2023/08/27 11:27:18;;;;;;;39.40;38.00;;;23.60;91.50;;;;;;4960060;28;20558;-52
2023/08/27 11:29:48;;;;;;;37.30;36.00;;;23.60;91.40;;;;;;4961605;28;20536;-48
2023/08/27 11:32:15;;;;;;;40.20;38.80;;;23.60;91.10;;;;;;4963486;28;20459;-48
2023/08/27 11:34:45;;;;;;;36.93;35.40;;;23.60;91.10;;;;;;4961868;28;20522;-48
2023/08/27 11:37:12;;;;;;;35.67;34.37;;;23.60;91.00;;;;;;4960114;28;20441;-50
2023/08/27 11:39:40;;;;;;;35.93;34.63;;;23.60;90.90;;;;;;4960655;28;20487;-48
2023/08/27 11:42:11;;;;;;;38.53;37.13;;;23.60;90.90;;;;;;4963257;28;20983;-49
2023/08/27 11:44:49;;;;;;;36.00;34.70;;;23.60;90.70;;;;;;4962454;28;20495;-48
2023/08/27 11:47:16;;;;;;;41.00;39.50;;;23.60;90.40;;;;;;4959706;28;20476;-50
2023/08/27 11:49:44;;;;;;;38.33;36.93;;;23.60;90.20;;;;;;4960869;28;20480;-48
2023/08/27 11:52:13;;;;;;;38.47;37.07;;;23.60;90.10;;;;;;4963194;28;20488;-48
2023/08/27 11:54:41;;;;;;;40.50;39.10;;;23.60;90.00;;;;;;4961885;28;20470;-48
2023/08/27 11:57:09;;;;;;;38.17;36.77;;;23.60;89.80;;;;;;4959696;28;20532;-51
2023/08/27 11:59:38;;;;;;;39.03;37.53;;;23.60;89.30;;;;;;4959623;28;20453;-49
2023/08/27 12:02:07;;;;;;;35.70;34.40;;;23.60;89.00;;;;;;4963021;28;20443;-48
2023/08/27 12:04:35;;;;;;;35.00;33.70;;;23.60;89.00;;;;;;4962649;28;20498;-48
2023/08/27 12:07:05;;;;;;;36.70;35.07;;;23.60;88.70;;;;;;4951754;28;20921;-49
2023/08/27 12:09:33;;;;;;;36.43;35.03;;;23.60;88.30;;;;;;4959513;28;20916;-48
2023/08/27 12:12:02;;;;;;;33.60;32.20;;;23.60;88.20;;;;;;4962596;28;20867;-50
2023/08/27 12:14:30;;;;;;;37.37;36.00;;;23.60;87.90;;;;;;4962518;28;20470;-48
2023/08/27 12:17:03;;;;;;;37.37;35.97;;;23.60;87.90;;;;;;4959914;28;20433;-50
2023/08/27 12:19:30;;;;;;;35.40;34.10;;;23.60;87.80;;;;;;4959484;28;20463;-48
2023/08/27 12:21:58;;;;;;;35.33;34.03;;;23.60;87.80;;;;;;4962090;28;20448;-49
2023/08/27 12:24:31;;;;;;;37.60;36.27;;;23.70;88.00;;;;;;4962274;28;20492;-48
2023/08/27 12:27:01;;;;;;;35.73;34.43;;;23.70;87.50;;;;;;4959555;28;20584;-49
2023/08/27 12:29:29;;;;;;;34.63;33.40;;;23.70;87.60;;;;;;4959501;28;20444;-51
2023/08/27 12:31:56;;;;;;;35.37;33.97;;;23.70;87.30;;;;;;4961742;28;20445;-49